Time;durP1;ratioP1;P1;durP2;ratioP2;P2;SDS_P1;SDS_P2;PMS_P1;PMS_P2;Temp;Humidity;BMP_temperature;BMP_pressure;BME280_temperature;BME280_humidity;BME280_pressure;Samples;Min_cycle;Max_cycle;Signal;HPM_P1;HPM_P2
2023/01/29 00:02:12;;;;;;;10.52;5.90;;;;;;;-1.06;100.00;99649.28;4953038;29;20102;-70
2023/01/29 00:04:58;;;;;;;9.95;5.60;;;;;;;-1.15;100.00;99652.78;4952639;28;20047;-70
2023/01/29 00:07:43;;;;;;;8.95;5.45;;;;;;;-1.18;100.00;99654.53;4951547;29;20122;-70
2023/01/29 00:10:28;;;;;;;9.50;5.15;;;;;;;-1.21;100.00;99655.41;4951702;28;20071;-70
2023/01/29 00:13:12;;;;;;;9.02;5.50;;;;;;;-1.27;100.00;99652.84;4952594;29;20126;-70
2023/01/29 00:15:58;;;;;;;8.00;4.82;;;;;;;-0.90;100.00;99646.63;4952535;29;20130;-70
2023/01/29 00:18:44;;;;;;;9.10;5.07;;;;;;;-1.16;100.00;99652.81;4948907;29;20048;-70
2023/01/29 00:21:31;;;;;;;9.05;5.40;;;;;;;-1.16;100.00;99663.09;4952801;29;20054;-70
2023/01/29 00:24:16;;;;;;;9.15;4.97;;;;;;;-1.27;100.00;99666.56;4952587;29;20035;-70
2023/01/29 00:27:00;;;;;;;7.35;4.40;;;;;;;-1.28;100.00;99664.88;4967154;28;20047;-70
2023/01/29 00:30:07;;;;;;;7.15;4.25;;;;;;;-1.35;100.00;99673.47;4955973;28;20059;-72
2023/01/29 00:32:49;;;;;;;10.07;5.28;;;;;;;-1.12;100.00;99669.91;4950022;29;20046;-70
2023/01/29 00:35:34;;;;;;;7.82;4.50;;;;;;;-1.04;100.00;99670.72;4960344;28;20046;-69
2023/01/29 00:38:19;;;;;;;6.80;4.45;;;;;;;-0.97;100.00;99663.81;4945246;28;20092;-68
2023/01/29 00:47:33;;;;;;;9.10;4.80;;;;;;;-1.21;100.00;99673.41;4955307;29;20048;-68
2023/01/29 00:50:19;;;;;;;7.50;4.15;;;;;;;-1.02;100.00;99668.13;4941954;29;20051;-70
2023/01/29 00:53:04;;;;;;;7.07;4.55;;;;;;;-0.94;100.00;99670.66;4943565;28;20126;-70
2023/01/29 00:55:48;;;;;;;6.40;4.03;;;;;;;-1.17;99.85;99675.09;4955690;28;20122;-68
2023/01/29 00:58:33;;;;;;;6.07;4.05;;;;;;;-1.09;100.00;99680.19;4955127;28;20533;-69
2023/01/29 01:04:23;;;;;;;7.18;4.13;;;;;;;-0.67;100.00;99677.31;4957733;28;20098;-71
2023/01/29 01:07:07;;;;;;;7.20;4.55;;;;;;;-0.61;100.00;99671.28;4954085;28;20134;-68
2023/01/29 01:12:59;;;;;;;8.43;5.57;;;;;;;-1.10;100.00;99685.34;4946491;29;20436;-69
2023/01/29 01:15:44;;;;;;;7.50;4.93;;;;;;;-1.17;100.00;99677.66;4955498;29;20043;-68
2023/01/29 01:18:30;;;;;;;8.85;5.38;;;;;;;-1.12;100.00;99677.63;4955682;28;20062;-70
2023/01/29 01:21:15;;;;;;;7.38;5.00;;;;;;;-1.28;100.00;99676.88;4931556;29;20063;-70
2023/01/29 01:24:04;;;;;;;7.65;5.03;;;;;;;-1.19;100.00;99681.13;4958724;28;20478;-70
2023/01/29 01:26:52;;;;;;;9.00;5.55;;;;;;;-1.41;100.00;99688.94;4928244;28;20055;-69
2023/01/29 01:29:37;;;;;;;7.75;5.47;;;;;;;-1.41;100.00;99681.22;4934007;29;20835;-70
2023/01/29 01:32:22;;;;;;;7.55;5.25;;;;;;;-1.46;100.00;99682.94;4925732;29;20046;-69
2023/01/29 01:35:08;;;;;;;7.95;4.95;;;;;;;-1.52;100.00;99683.84;4953385;28;20170;-70
2023/01/29 01:37:53;;;;;;;8.07;5.20;;;;;;;-1.59;100.00;99688.16;4967094;28;20047;-70
2023/01/29 01:40:43;;;;;;;9.63;4.68;;;;;;;-1.50;100.00;99685.53;4940655;29;20514;-69
2023/01/29 01:43:49;;;;;;;8.07;5.40;;;;;;;-1.59;100.00;99689.84;4948619;28;20390;-69
2023/01/29 01:46:36;;;;;;;6.80;4.80;;;;;;;-1.50;100.00;99682.97;4941036;29;20123;-70
2023/01/29 01:49:23;;;;;;;9.93;6.15;;;;;;;-1.57;99.58;99688.13;4941152;29;20051;-69
2023/01/29 01:52:07;;;;;;;8.32;4.95;;;;;;;-1.56;100.00;99689.84;4954572;28;20051;-70
2023/01/29 01:54:53;;;;;;;6.32;4.43;;;;;;;-1.33;100.00;99699.16;4953511;29;20474;-69
2023/01/29 01:57:38;;;;;;;8.73;4.97;;;;;;;-1.48;100.00;99690.66;4953655;28;20051;-69
2023/01/29 02:00:25;;;;;;;8.82;5.50;;;;;;;-1.52;99.63;99699.25;4951585;28;20055;-67
2023/01/29 02:09:34;;;;;;;8.43;5.45;;;;;;;-1.67;99.85;99710.44;4956994;28;20043;-68
2023/01/29 02:12:20;;;;;;;7.40;5.35;;;;;;;-1.47;100.00;99710.38;4956924;29;20082;-70
2023/01/29 02:15:05;;;;;;;7.68;5.00;;;;;;;-1.27;100.00;99717.13;4955369;28;20126;-70
2023/01/29 02:17:51;;;;;;;7.80;5.82;;;;;;;-1.64;100.00;99707.88;4946808;28;20061;-69
2023/01/29 02:20:40;;;;;;;8.27;5.88;;;;;;;-1.52;100.00;99707.81;4939621;28;20399;-70
2023/01/29 02:23:31;;;;;;;8.95;5.60;;;;;;;-1.55;100.00;99704.41;4954452;29;20122;-69
2023/01/29 02:26:35;;;;;;;9.60;6.15;;;;;;;-1.65;100.00;99708.72;4951172;28;20043;-68
2023/01/29 02:29:36;;;;;;;10.00;6.43;;;;;;;-1.98;100.00;99712.25;4953732;28;20123;-70
2023/01/29 02:32:40;;;;;;;10.48;7.05;;;;;;;-1.93;100.00;99706.22;4969379;28;20573;-70
2023/01/29 02:35:45;;;;;;;10.35;6.30;;;;;;;-1.92;100.00;99701.09;4946651;29;20042;-70
2023/01/29 02:38:54;;;;;;;9.48;6.28;;;;;;;-2.00;100.00;99713.09;4966927;28;20051;-70
2023/01/29 02:41:53;;;;;;;10.15;6.57;;;;;;;-1.93;100.00;99713.94;4966424;28;20483;-70
2023/01/29 02:44:59;;;;;;;10.30;6.13;;;;;;;-1.67;100.00;99713.00;4954135;28;20126;-69
2023/01/29 02:47:59;;;;;;;9.50;6.30;;;;;;;-1.82;100.00;99712.19;4938185;29;20044;-69
2023/01/29 02:50:59;;;;;;;9.65;6.40;;;;;;;-1.81;100.00;99707.94;4956096;28;20043;-69
2023/01/29 02:54:00;;;;;;;;;;;;;;;-1.67;100.00;99713.88;4961034;28;20058;-69
2023/01/29 02:56:51;;;;;;;11.07;6.65;;;;;;;-1.80;100.00;99727.63;4959661;28;19922;-68
2023/01/29 02:59:42;;;;;;;10.73;6.68;;;;;;;-1.89;99.92;99726.78;4954242;29;20132;-69
2023/01/29 03:02:42;;;;;;;9.55;6.82;;;;;;;-1.90;100.00;99726.78;4955902;29;20066;-68
2023/01/29 03:05:31;;;;;;;11.60;7.55;;;;;;;-2.23;100.00;99722.53;4936841;29;20114;-68
2023/01/29 03:08:22;;;;;;;11.50;7.60;;;;;;;-2.03;100.00;99728.50;4947415;29;20087;-67
2023/01/29 03:11:13;;;;;;;11.93;7.65;;;;;;;-2.17;100.00;99724.22;4963831;28;20047;-69
2023/01/29 03:14:15;;;;;;;10.52;6.93;;;;;;;-2.12;100.00;99737.94;4952828;28;20059;-69
2023/01/29 03:17:07;;;;;;;9.68;7.10;;;;;;;-1.95;100.00;99731.94;4939218;28;20050;-68
2023/01/29 03:19:53;;;;;;;10.40;6.57;;;;;;;-1.74;100.00;99727.59;4942646;29;20435;-69
2023/01/29 03:22:45;;;;;;;12.52;7.32;;;;;;;-1.96;100.00;99724.22;4952565;29;20558;-69
2023/01/29 03:34:56;;;;;;;10.32;7.10;;;;;;;-2.16;100.00;99738.81;4951610;28;20406;-70
2023/01/29 03:37:44;;;;;;;10.25;7.35;;;;;;;-2.28;100.00;99738.78;4953984;28;20139;-70
2023/01/29 03:40:40;;;;;;;11.43;7.43;;;;;;;-2.08;100.00;99731.09;4952110;28;20046;-70
2023/01/29 03:43:26;;;;;;;12.10;8.25;;;;;;;-2.47;100.00;99736.22;4952199;28;20051;-68
2023/01/29 03:46:21;;;;;;;11.02;7.15;;;;;;;-2.44;100.00;99736.22;4938551;29;20130;-69
2023/01/29 03:49:38;;;;;;;10.20;7.00;;;;;;;-2.44;100.00;99733.66;4950789;28;20043;-70
2023/01/29 03:52:36;;;;;;;11.18;7.75;;;;;;;-2.43;100.00;99729.41;4949544;28;20043;-67
2023/01/29 03:55:28;;;;;;;9.63;6.78;;;;;;;-2.23;100.00;99721.69;4953823;28;20117;-70
2023/01/29 03:58:51;;;;;;;10.57;7.35;;;;;;;-2.33;100.00;99727.69;4960571;28;20179;-68
2023/01/29 04:01:56;;;;;;;10.65;7.47;;;;;;;-2.43;100.00;99714.84;4873468;29;20056;-68
2023/01/29 04:04:45;;;;;;;11.70;7.57;;;;;;;-2.36;100.00;99716.56;4870342;29;20099;-69
2023/01/29 04:07:32;;;;;;;11.23;7.05;;;;;;;-2.19;100.00;99715.69;4852439;29;20485;-68
2023/01/29 04:10:25;;;;;;;9.55;6.43;;;;;;;-2.43;99.62;99719.13;4865538;29;20069;-69
2023/01/29 04:13:13;;;;;;;9.82;6.53;;;;;;;-2.21;100.00;99717.41;4870462;29;20141;-69
2023/01/29 04:16:04;;;;;;;9.20;6.60;;;;;;;-2.54;99.29;99708.84;4862750;29;20069;-69
2023/01/29 04:19:07;;;;;;;8.13;5.57;;;;;;;-2.40;99.74;99712.25;4865480;29;20049;-69
2023/01/29 04:22:04;;;;;;;8.07;5.47;;;;;;;-2.49;99.90;99699.44;4865601;29;20492;-69
2023/01/29 04:24:50;;;;;;;8.95;6.20;;;;;;;-2.37;100.00;99699.41;4866864;29;20049;-69
2023/01/29 04:28:02;;;;;;;10.10;6.07;;;;;;;-2.24;99.58;99697.69;4869743;29;20085;-71
2023/01/29 04:30:53;;;;;;;;;;;;;;;-2.56;97.71;99705.44;4866948;29;20127;-68
2023/01/29 04:34:06;;;;;;;8.05;5.82;;;;;;;-2.55;100.00;99702.88;4870359;29;19931;-69
2023/01/29 04:37:12;;;;;;;9.68;6.13;;;;;;;-2.26;99.16;99706.28;4952298;28;20044;-68
2023/01/29 04:40:30;;;;;;;8.35;6.25;;;;;;;-2.17;100.00;99708.00;4949804;28;20102;-70
2023/01/29 04:43:27;;;;;;;8.43;5.45;;;;;;;-2.35;97.59;99717.41;4946652;29;20411;-69
2023/01/29 04:46:38;;;;;;;7.50;5.18;;;;;;;-2.32;98.10;99716.56;4947695;28;20126;-70
2023/01/29 04:49:42;;;;;;;8.57;5.50;;;;;;;-2.48;98.28;99716.56;4944132;29;20067;-68
2023/01/29 04:52:41;;;;;;;8.50;5.28;;;;;;;-2.65;96.78;99727.66;4956006;28;20043;-68
2023/01/29 04:55:40;;;;;;;8.30;5.25;;;;;;;-2.56;96.24;99723.41;4954413;29;20039;-68
2023/01/29 04:58:32;;;;;;;8.10;5.43;;;;;;;-2.66;96.75;99718.25;4942161;28;20047;-68
2023/01/29 05:01:18;;;;;;;7.00;5.18;;;;;;;-2.68;96.35;99719.97;4959802;29;20047;-68
2023/01/29 05:04:16;;;;;;;7.72;5.18;;;;;;;-2.80;95.73;99725.94;4961026;29;20050;-68
2023/01/29 05:07:09;;;;;;;8.63;5.65;;;;;;;-2.70;96.85;99726.81;4957953;28;20126;-67
2023/01/29 05:09:54;;;;;;;8.77;5.65;;;;;;;-2.62;96.42;99722.53;4955197;28;20407;-68
2023/01/29 05:12:42;;;;;;;7.20;5.10;;;;;;;-2.82;95.63;99727.63;4953735;28;20039;-69
2023/01/29 05:15:39;;;;;;;7.30;5.13;;;;;;;-2.33;96.89;99731.09;4959046;28;20051;-69
2023/01/29 05:18:23;;;;;;;6.78;4.65;;;;;;;-2.40;95.13;99719.13;4954810;28;20411;-69
2023/01/29 05:21:08;;;;;;;7.22;5.03;;;;;;;-2.75;94.45;99724.25;4955158;28;20415;-68
2023/01/29 05:24:10;;;;;;;7.28;4.80;;;;;;;-2.66;96.09;99725.94;4955214;28;20067;-67
2023/01/29 05:29:58;;;;;;;6.65;4.47;;;;;;;-2.86;94.02;99720.78;4960894;28;20051;-69
2023/01/29 05:32:43;;;;;;;6.78;4.35;;;;;;;-2.76;95.82;99731.94;4956030;28;20126;-68
2023/01/29 05:35:28;;;;;;;7.20;4.63;;;;;;;-2.95;95.96;99721.63;4955118;29;20051;-68
2023/01/29 05:38:13;;;;;;;7.63;4.72;;;;;;;-2.63;97.11;99719.97;4943766;29;20501;-69
2023/01/29 05:40:58;;;;;;;7.07;3.83;;;;;;;-2.39;96.71;99718.25;4954504;29;20478;-68
2023/01/29 05:43:43;;;;;;;6.75;4.63;;;;;;;-2.61;97.01;99721.66;4953419;28;20379;-67
2023/01/29 05:46:28;;;;;;;6.30;4.80;;;;;;;-2.54;94.90;99719.97;4944337;28;20083;-68
2023/01/29 05:49:14;;;;;;;7.03;4.85;;;;;;;-2.67;93.99;99723.38;4958850;28;20401;-67
2023/01/29 05:51:58;;;;;;;6.75;4.55;;;;;;;-2.67;93.57;99721.66;4955512;28;20134;-69
2023/01/29 05:54:43;;;;;;;5.80;3.92;;;;;;;-2.84;94.32;99721.66;4948327;29;20138;-69
2023/01/29 05:57:27;;;;;;;7.25;4.47;;;;;;;-2.48;96.02;99716.56;4955761;28;20121;-69
2023/01/29 06:00:13;;;;;;;7.32;3.95;;;;;;;-2.68;94.05;99712.28;4956767;28;20039;-68
2023/01/29 06:02:58;;;;;;;6.00;4.15;;;;;;;-2.89;93.81;99719.06;4954031;29;20050;-68
2023/01/29 06:05:43;;;;;;;7.10;4.93;;;;;;;-3.06;94.09;99716.47;4954214;28;20067;-70
2023/01/29 06:08:28;;;;;;;7.38;4.45;;;;;;;-3.19;94.15;99717.28;4952641;28;20051;-69
2023/01/29 06:11:16;;;;;;;6.45;4.30;;;;;;;-2.98;95.50;99713.91;4954187;28;20121;-69
2023/01/29 06:14:01;;;;;;;5.47;4.05;;;;;;;-2.93;95.12;99714.78;4953075;29;20055;-69
2023/01/29 06:16:46;;;;;;;5.28;3.85;;;;;;;-2.95;94.31;99700.25;4949978;28;20050;-69
2023/01/29 06:19:30;;;;;;;7.35;4.47;;;;;;;-3.13;94.10;99705.34;4946779;28;20126;-69
2023/01/29 06:22:15;;;;;;;5.40;3.75;;;;;;;-3.02;92.44;99707.91;4953064;28;20109;-69
2023/01/29 06:25:00;;;;;;;5.50;3.70;;;;;;;-3.24;90.96;99694.19;4966867;28;20091;-70
2023/01/29 06:27:45;;;;;;;5.10;3.75;;;;;;;-3.42;90.94;99693.28;4953348;28;20043;-69
2023/01/29 06:30:30;;;;;;;4.78;3.47;;;;;;;-3.23;91.33;99699.31;4953132;28;20039;-69
2023/01/29 06:33:15;;;;;;;5.95;4.18;;;;;;;-3.30;90.15;99707.00;4952922;29;20046;-67
2023/01/29 06:36:03;;;;;;;6.40;4.03;;;;;;;-3.35;91.14;99705.28;4953241;28;20051;-69
2023/01/29 06:38:47;;;;;;;6.18;4.30;;;;;;;-3.56;92.87;99710.31;4953832;28;20043;-69
2023/01/29 06:41:33;;;;;;;5.70;3.88;;;;;;;-3.39;93.58;99706.13;4942888;29;20039;-68
2023/01/29 06:44:18;;;;;;;5.40;4.05;;;;;;;-3.34;91.70;99714.69;4954482;28;20090;-69
2023/01/29 06:47:03;;;;;;;4.78;3.78;;;;;;;-3.58;90.28;99723.13;4953570;28;20395;-70
2023/01/29 06:49:48;;;;;;;5.45;4.03;;;;;;;-3.53;92.08;99728.25;4938763;28;20047;-68
2023/01/29 06:52:34;;;;;;;5.25;4.20;;;;;;;-3.49;88.74;99719.72;4953224;28;20039;-69
2023/01/29 06:55:19;;;;;;;5.38;4.13;;;;;;;-3.40;90.19;99739.44;4938640;28;20047;-68
2023/01/29 06:58:11;;;;;;;5.32;4.03;;;;;;;-3.78;89.76;99723.88;4960622;28;20035;-70
2023/01/29 07:01:23;;;;;;;6.13;4.10;;;;;;;-3.86;91.22;99712.72;4962820;28;20041;-70
2023/01/29 07:04:07;;;;;;;5.38;4.13;;;;;;;-3.93;89.75;99729.75;4952002;28;20058;-70
2023/01/29 07:06:52;;;;;;;5.25;3.95;;;;;;;-3.85;89.04;99722.97;4952667;28;20123;-68
2023/01/29 07:09:40;;;;;;;5.15;4.03;;;;;;;-3.71;90.11;99724.75;4941284;28;20047;-69
2023/01/29 07:12:25;;;;;;;6.18;4.25;;;;;;;-3.63;90.08;99712.84;4952339;28;20043;-70
2023/01/29 07:15:11;;;;;;;5.70;4.20;;;;;;;-3.60;86.98;99718.00;4951293;28;20055;-71
2023/01/29 07:18:01;;;;;;;5.55;4.55;;;;;;;-3.60;86.40;99712.88;4927870;28;20066;-69
2023/01/29 07:20:46;;;;;;;4.78;3.35;;;;;;;-3.67;86.21;99713.66;4953031;28;20483;-70
2023/01/29 07:23:33;;;;;;;6.15;4.32;;;;;;;-3.57;85.27;99716.31;4952466;28;20090;-70
2023/01/29 07:26:18;;;;;;;7.13;4.80;;;;;;;-3.46;85.20;99714.66;4948806;28;20085;-69
2023/01/29 07:29:04;;;;;;;5.45;4.32;;;;;;;-3.06;85.69;99720.75;4953117;28;20058;-70
2023/01/29 07:31:48;;;;;;;6.15;4.65;;;;;;;-2.63;83.85;99707.16;4941204;28;20047;-64
2023/01/29 07:34:33;;;;;;;7.07;5.10;;;;;;;-2.03;79.12;99725.94;4955948;28;20040;-68
2023/01/29 07:37:19;;;;;;;5.95;4.30;;;;;;;-2.11;79.05;99721.69;4952840;28;20032;-68
2023/01/29 07:40:09;;;;;;;6.28;4.05;;;;;;;-2.29;78.59;99713.97;4951412;28;20106;-69
2023/01/29 07:43:00;;;;;;;7.88;3.92;;;;;;;-2.02;81.88;99713.09;4946701;29;20039;-70
2023/01/29 07:45:45;;;;;;;9.20;6.28;;;;;;;-2.44;84.95;99723.41;4953137;29;20509;-70
2023/01/29 07:48:31;;;;;;;6.88;4.72;;;;;;;-1.73;85.76;99717.31;4954302;29;20039;-73
2023/01/29 07:51:17;;;;;;;6.53;4.88;;;;;;;-1.82;81.54;99719.03;4960295;28;20053;-72
2023/01/29 07:54:01;;;;;;;7.63;4.78;;;;;;;-1.40;85.51;99722.34;4945256;28;20457;-71
2023/01/29 07:56:46;;;;;;;6.30;4.25;;;;;;;-0.36;75.87;99722.59;4955012;28;20048;-66
2023/01/29 07:59:31;;;;;;;8.18;5.05;;;;;;;-0.41;76.29;99708.91;4955545;28;20149;-70
2023/01/29 08:02:16;;;;;;;11.65;4.90;;;;;;;0.53;73.15;99710.53;4954724;28;20118;-70
2023/01/29 08:05:00;;;;;;;8.88;4.95;;;;;;;1.07;74.57;99719.28;4949201;28;20055;-72
2023/01/29 08:07:51;;;;;;;5.47;4.07;;;;;;;1.78;69.57;99721.69;4954020;29;20049;-70
2023/01/29 08:10:36;;;;;;;5.28;4.03;;;;;;;1.71;67.30;99731.25;4954043;28;20047;-71
2023/01/29 08:13:21;;;;;;;6.75;4.65;;;;;;;1.60;68.32;99727.09;4953253;29;20063;-69
2023/01/29 08:16:07;;;;;;;5.47;3.63;;;;;;;2.46;72.95;99724.75;4939147;29;20051;-69
2023/01/29 08:18:52;;;;;;;5.60;3.65;;;;;;;1.38;63.71;99718.00;4954019;28;20133;-68
2023/01/29 08:21:36;;;;;;;4.57;3.65;;;;;;;1.67;65.81;99709.78;4952825;29;20050;-68
2023/01/29 08:24:21;;;;;;;4.25;3.38;;;;;;;1.16;61.47;99714.00;4959317;28;20043;-68
2023/01/29 08:27:05;;;;;;;5.80;3.45;;;;;;;2.54;69.31;99711.66;4951144;29;20401;-67
2023/01/29 08:29:50;;;;;;;3.63;3.15;;;;;;;2.60;65.00;99706.34;4939044;29;20067;-68
2023/01/29 08:32:36;;;;;;;5.38;3.53;;;;;;;2.46;63.86;99696.28;4946286;28;20122;-67
2023/01/29 08:35:21;;;;;;;4.13;3.08;;;;;;;2.87;58.91;99693.72;4952371;28;20047;-67
2023/01/29 08:38:06;;;;;;;6.72;3.13;;;;;;;3.15;59.93;99707.78;4951907;28;20593;-67
2023/01/29 08:40:51;;;;;;;5.50;3.50;;;;;;;2.99;63.49;99707.28;4951158;28;20491;-67
2023/01/29 08:43:35;;;;;;;4.72;3.17;;;;;;;2.40;61.28;99707.59;4951363;28;20045;-67
2023/01/29 08:46:20;;;;;;;4.15;2.80;;;;;;;2.99;60.83;99715.88;4952553;28;20122;-67
2023/01/29 08:49:06;;;;;;;4.88;3.17;;;;;;;3.78;61.67;99708.03;4953951;28;20043;-67
2023/01/29 08:51:52;;;;;;;5.97;2.90;;;;;;;4.42;57.35;99708.91;4955620;28;20486;-66
2023/01/29 08:54:37;;;;;;;4.00;3.13;;;;;;;4.74;57.01;99713.22;4942957;29;20046;-68
2023/01/29 08:57:22;;;;;;;5.00;3.22;;;;;;;4.68;55.40;99722.91;4941134;29;20503;-68
2023/01/29 09:00:08;;;;;;;4.18;3.03;;;;;;;5.09;61.65;99729.53;4955473;28;20039;-68
2023/01/29 09:02:52;;;;;;;5.18;3.30;;;;;;;4.83;57.67;99712.13;4939145;29;20039;-66
2023/01/29 09:05:39;;;;;;;5.55;3.50;;;;;;;4.83;56.19;99719.91;4940963;28;20054;-67
2023/01/29 09:08:23;;;;;;;3.47;2.80;;;;;;;5.35;59.81;99721.81;4955092;28;20043;-67
2023/01/29 09:11:09;;;;;;;6.53;3.60;;;;;;;4.88;49.07;99724.06;4935824;29;20074;-68
2023/01/29 09:13:54;;;;;;;5.15;3.58;;;;;;;5.18;54.60;99710.19;4949988;28;20176;-67
2023/01/29 09:16:38;;;;;;;3.97;3.30;;;;;;;5.31;59.93;99715.84;4954156;29;20055;-68
2023/01/29 09:19:23;;;;;;;4.45;3.30;;;;;;;4.13;76.34;99720.13;4948626;29;20052;-68
2023/01/29 09:22:08;;;;;;;5.13;3.15;;;;;;;4.62;68.33;99722.25;4950384;28;20044;-69
2023/01/29 09:24:53;;;;;;;4.43;3.50;;;;;;;5.37;53.87;99720.03;4954820;28;20486;-66
2023/01/29 09:27:38;;;;;;;4.72;2.90;;;;;;;5.22;64.88;99719.59;4945273;29;20471;-67
2023/01/29 09:30:22;;;;;;;7.72;3.75;;;;;;;5.81;59.00;99713.41;4954372;28;20066;-68
2023/01/29 09:33:07;;;;;;;5.13;3.85;;;;;;;4.97;49.81;99729.88;4954691;28;20479;-68
2023/01/29 09:35:52;;;;;;;4.85;3.25;;;;;;;5.93;63.81;99726.00;4954795;28;20090;-69
2023/01/29 09:38:36;;;;;;;3.95;2.90;;;;;;;6.25;59.49;99741.44;4954802;28;20051;-68
2023/01/29 09:41:41;;;;;;;3.97;2.97;;;;;;;6.96;58.49;99735.41;4950473;28;20062;-69
2023/01/29 09:44:37;;;;;;;4.45;3.20;;;;;;;7.56;53.92;99718.31;4953925;28;20510;-69
2023/01/29 09:47:25;;;;;;;4.28;3.03;;;;;;;7.48;51.86;99729.06;4938395;28;20048;-69
2023/01/29 09:50:10;;;;;;;3.88;3.28;;;;;;;6.81;48.11;99723.81;4953322;29;20051;-69
2023/01/29 09:53:00;;;;;;;4.20;3.13;;;;;;;6.40;58.19;99719.22;4953959;29;20059;-68
2023/01/29 09:55:50;;;;;;;4.22;2.70;;;;;;;6.48;56.49;99726.75;4953506;28;20130;-68
2023/01/29 09:58:37;;;;;;;4.55;3.40;;;;;;;7.19;48.63;99718.03;4944961;28;20046;-69
2023/01/29 10:01:27;;;;;;;4.47;3.13;;;;;;;6.53;55.71;99735.22;4953688;28;20402;-68
2023/01/29 10:04:15;;;;;;;4.10;3.10;;;;;;;6.60;61.20;99741.06;4949235;28;20043;-68
2023/01/29 10:07:31;;;;;;;4.30;3.40;;;;;;;6.54;55.80;99713.50;4954732;28;20047;-66
2023/01/29 10:10:36;;;;;;;4.18;3.03;;;;;;;7.38;51.55;99714.69;4937326;28;20487;-68
2023/01/29 10:13:43;;;;;;;5.80;2.85;;;;;;;6.85;51.09;99716.72;4960476;28;20430;-67
2023/01/29 10:16:50;;;;;;;4.03;2.97;;;;;;;6.65;59.19;99721.78;4936125;28;20124;-67
2023/01/29 10:19:43;;;;;;;3.65;2.72;;;;;;;6.05;52.87;99711.75;4953920;29;20194;-65
2023/01/29 10:22:34;;;;;;;3.63;2.80;;;;;;;5.58;54.37;99725.44;4934377;29;20047;-64
2023/01/29 10:25:20;;;;;;;4.65;3.17;;;;;;;7.39;50.29;99717.22;4954722;29;20393;-62
2023/01/29 10:28:16;;;;;;;4.85;3.00;;;;;;;8.41;44.25;99710.41;4953868;29;20451;-70
2023/01/29 10:31:12;;;;;;;4.35;3.20;;;;;;;6.50;52.71;99717.97;4935234;29;20499;-73
2023/01/29 10:34:02;;;;;;;3.50;3.13;;;;;;;6.33;45.42;99708.19;4953540;29;20416;-69
2023/01/29 10:36:48;;;;;;;4.18;3.15;;;;;;;5.05;47.38;99720.13;4953009;28;20105;-72
2023/01/29 10:39:33;;;;;;;3.72;3.03;;;;;;;4.83;49.00;99714.72;4964437;28;20041;-67
2023/01/29 10:42:18;;;;;;;4.50;3.50;;;;;;;3.82;50.35;99711.34;4965556;28;20502;-71
2023/01/29 10:45:24;;;;;;;4.03;2.97;;;;;;;4.20;52.38;99706.06;4933791;29;20119;-66
2023/01/29 10:48:36;;;;;;;4.28;3.13;;;;;;;4.30;49.10;99702.34;4944344;29;20403;-68
2023/01/29 10:51:20;;;;;;;3.50;2.95;;;;;;;3.65;51.61;99707.47;4953041;28;20065;-72
2023/01/29 10:54:36;;;;;;;4.53;3.45;;;;;;;4.32;49.98;99697.94;4951873;28;20102;-72
2023/01/29 10:57:59;;;;;;;5.70;3.55;;;;;;;3.79;50.51;99701.94;4965462;28;20065;-74
2023/01/29 11:00:44;;;;;;;4.32;3.45;;;;;;;2.95;52.27;99701.31;4952383;28;20066;-72
2023/01/29 11:03:31;;;;;;;6.20;3.70;;;;;;;3.53;51.60;99695.66;4954779;28;20041;-71
2023/01/29 11:06:24;;;;;;;3.97;3.58;;;;;;;2.05;56.16;99686.72;4954837;28;20050;-71
2023/01/29 11:09:33;;;;;;;4.63;3.67;;;;;;;2.54;57.51;99693.53;4953918;28;20130;-68
2023/01/29 11:12:26;;;;;;;6.15;4.18;;;;;;;4.04;59.39;99680.56;4948223;28;20043;-71
2023/01/29 11:15:11;;;;;;;8.07;5.07;;;;;;;3.94;65.48;99681.69;4953308;29;20058;-71
2023/01/29 11:18:14;;;;;;;10.32;4.82;;;;;;;2.63;72.46;99674.41;4936660;29;20047;-73
2023/01/29 11:21:16;;;;;;;14.18;5.45;;;;;;;5.21;79.31;99673.72;4955027;29;20050;-75
2023/01/29 11:24:15;;;;;;;7.90;4.35;;;;;;;3.42;69.15;99672.63;4957291;28;20067;-76
2023/01/29 11:27:00;;;;;;;9.00;4.28;;;;;;;5.74;82.69;99668.56;4936361;29;20106;-73
2023/01/29 11:29:47;;;;;;;8.25;3.97;;;;;;;3.90;61.02;99675.72;4956360;28;20050;-72
2023/01/29 11:32:34;;;;;;;5.45;4.00;;;;;;;4.24;75.40;99666.19;4954361;28;20053;-73
2023/01/29 11:35:22;;;;;;;6.32;3.80;;;;;;;5.86;80.85;99659.50;4955889;28;20050;-72
2023/01/29 11:38:34;;;;;;;3.95;3.40;;;;;;;6.17;57.15;99645.41;4933136;29;20495;-73
2023/01/29 11:41:24;;;;;;;5.40;3.58;;;;;;;6.72;58.72;99654.69;4941512;28;20045;-80
2023/01/29 11:44:30;;;;;;;4.75;3.88;;;;;;;5.71;52.94;99635.72;4929899;28;20038;-71
2023/01/29 11:47:24;;;;;;;6.40;3.42;;;;;;;5.72;52.83;99631.34;4951788;28;20487;-73
2023/01/29 11:50:18;;;;;;;;;;;;;;;4.48;64.75;99636.97;4951547;28;20406;-71
2023/01/29 11:53:05;;;;;;;5.00;3.33;;;;;;;5.66;58.06;99627.22;4964246;28;19933;-76
2023/01/29 11:55:51;;;;;;;4.45;3.13;;;;;;;5.89;55.59;99628.19;4951871;28;20055;-74
2023/01/29 11:58:36;;;;;;;4.75;3.55;;;;;;;6.04;56.15;99622.44;4930251;28;20055;-72
2023/01/29 12:01:33;;;;;;;4.72;3.78;;;;;;;3.72;53.55;99601.03;4938442;28;20071;-71
2023/01/29 12:04:23;;;;;;;5.85;4.20;;;;;;;3.77;54.21;99600.00;4914556;29;20056;-69
2023/01/29 12:07:16;;;;;;;5.90;3.88;;;;;;;3.58;54.56;99591.88;4897445;29;20052;-76
2023/01/29 12:10:02;;;;;;;5.80;3.65;;;;;;;5.20;52.88;99578.50;4920257;29;20079;-73
2023/01/29 12:12:48;;;;;;;4.95;3.70;;;;;;;6.20;46.93;99580.25;4914250;29;20048;-76
2023/01/29 12:15:33;;;;;;;5.22;3.50;;;;;;;6.46;50.07;99570.63;4907758;29;20159;-76
2023/01/29 12:18:43;;;;;;;6.00;4.00;;;;;;;4.54;47.84;99558.94;4926492;29;20095;-76
2023/01/29 12:21:36;;;;;;;5.72;3.70;;;;;;;2.42;55.58;99575.66;4857028;29;20053;-73
2023/01/29 12:24:34;;;;;;;6.00;4.45;;;;;;;2.56;54.24;99565.00;4868530;29;20065;-77
2023/01/29 12:27:29;;;;;;;4.72;3.70;;;;;;;4.34;54.84;99572.53;4834549;29;20054;-75
2023/01/29 12:30:40;;;;;;;7.13;3.88;;;;;;;5.04;50.27;99567.78;4863281;29;20049;-68
2023/01/29 12:34:02;;;;;;;6.38;4.50;;;;;;;6.50;55.19;99568.72;4858798;29;20506;-69
2023/01/29 12:37:00;;;;;;;6.30;4.50;;;;;;;4.16;53.79;99564.41;4858618;29;20057;-69
2023/01/29 12:39:45;;;;;;;5.25;4.00;;;;;;;4.46;52.95;99564.34;4858130;29;20050;-70
2023/01/29 12:42:32;;;;;;;5.30;4.38;;;;;;;4.02;63.79;99557.84;4858524;29;20162;-71
2023/01/29 12:45:18;;;;;;;6.28;4.28;;;;;;;6.21;60.21;99562.88;4843828;29;20098;-69
2023/01/29 12:48:12;;;;;;;5.03;4.20;;;;;;;5.86;49.97;99555.47;4846171;29;20098;-67
2023/01/29 12:51:09;;;;;;;5.43;4.53;;;;;;;3.17;55.42;99561.84;4832756;29;20642;-65
2023/01/29 12:54:13;;;;;;;6.03;4.15;;;;;;;4.10;53.48;99546.44;4856133;29;20052;-68
2023/01/29 12:57:03;;;;;;;4.90;3.90;;;;;;;4.73;70.13;99542.78;4838605;29;20189;-53
2023/01/29 13:00:10;;;;;;;7.03;5.70;;;;;;;3.20;55.35;99540.19;4911941;29;20267;-61
2023/01/29 13:03:19;;;;;;;6.93;4.90;;;;;;;3.89;58.13;99535.75;4890836;29;20044;-60
2023/01/29 13:06:17;;;;;;;8.48;4.15;;;;;;;11.69;74.65;99523.28;4914662;29;20407;-61
2023/01/29 13:09:08;;;;;;;6.43;4.40;;;;;;;8.71;44.68;99526.25;4900594;29;20047;-62
2023/01/29 13:12:02;;;;;;;6.78;4.72;;;;;;;6.25;46.10;99526.28;4914749;29;20135;-63
2023/01/29 13:14:55;;;;;;;5.72;4.43;;;;;;;4.40;50.84;99528.22;4915145;29;20064;-64
2023/01/29 13:17:45;;;;;;;6.85;4.40;;;;;;;3.47;57.67;99521.38;4914713;29;20452;-62
2023/01/29 13:20:32;;;;;;;6.43;4.25;;;;;;;2.12;58.60;99532.34;4915125;29;20147;-63
2023/01/29 13:23:23;;;;;;;7.47;5.07;;;;;;;1.88;59.40;99531.94;4910577;29;20464;-63
2023/01/29 13:26:08;;;;;;;8.05;5.10;;;;;;;0.86;62.66;99522.63;4901036;29;20072;-65
2023/01/29 13:28:53;;;;;;;6.85;4.97;;;;;;;0.70;75.94;99532.34;4884926;29;20056;-63
2023/01/29 13:31:40;;;;;;;6.07;5.03;;;;;;;2.05;60.57;99518.69;4914145;29;20578;-62
2023/01/29 13:34:30;;;;;;;7.50;4.97;;;;;;;1.26;65.16;99522.81;4887468;29;20132;-63
2023/01/29 13:37:27;;;;;;;7.15;6.05;;;;;;;1.08;63.49;99517.06;4914382;29;20063;-63
2023/01/29 13:40:23;;;;;;;8.25;5.65;;;;;;;1.67;79.29;99523.75;4914653;29;20048;-63
2023/01/29 13:43:19;;;;;;;8.27;6.30;;;;;;;2.01;61.56;99523.97;4914521;29;20056;-62
2023/01/29 13:46:12;;;;;;;9.10;6.18;;;;;;;3.29;78.86;99524.41;4916158;29;20055;-62
2023/01/29 13:49:03;;;;;;;6.72;5.30;;;;;;;3.10;59.78;99505.91;4919816;29;20083;-64
2023/01/29 13:51:48;;;;;;;7.40;5.40;;;;;;;2.49;63.88;99520.31;4926679;29;20052;-64
2023/01/29 13:54:35;;;;;;;6.05;5.28;;;;;;;2.09;59.66;99511.69;4933663;29;20522;-64
2023/01/29 13:57:32;;;;;;;7.30;5.07;;;;;;;3.26;62.07;99508.09;4919442;29;20048;-63